sensor_id;sensor_type;location;lat;lon;timestamp;temperature;humidity
70336;SHT31;57756;47.408;18.940;2023-04-03T00:01:05;6.18;77.14
70336;SHT31;57756;47.408;18.940;2023-04-03T00:03:30;6.19;77.22
70336;SHT31;57756;47.408;18.940;2023-04-03T00:05:56;6.15;76.87
70336;SHT31;57756;47.408;18.940;2023-04-03T00:08:22;6.19;77.19
70336;SHT31;57756;47.408;18.940;2023-04-03T00:10:49;6.15;77.14
70336;SHT31;57756;47.408;18.940;2023-04-03T00:13:14;6.16;77.29
70336;SHT31;57756;47.408;18.940;2023-04-03T00:15:41;6.15;76.87
70336;SHT31;57756;47.408;18.940;2023-04-03T00:18:07;6.13;77.20
70336;SHT31;57756;47.408;18.940;2023-04-03T00:20:33;6.11;76.96
70336;SHT31;57756;47.408;18.940;2023-04-03T00:22:58;6.02;77.04
70336;SHT31;57756;47.408;18.940;2023-04-03T00:25:24;6.02;76.98
70336;SHT31;57756;47.408;18.940;2023-04-03T00:27:50;5.99;76.80
70336;SHT31;57756;47.408;18.940;2023-04-03T00:30:18;5.94;77.54
70336;SHT31;57756;47.408;18.940;2023-04-03T00:32:44;5.95;77.03
70336;SHT31;57756;47.408;18.940;2023-04-03T00:35:10;5.94;77.04
70336;SHT31;57756;47.408;18.940;2023-04-03T00:37:36;5.94;76.71
70336;SHT31;57756;47.408;18.940;2023-04-03T00:40:03;5.95;77.19
70336;SHT31;57756;47.408;18.940;2023-04-03T00:42:29;5.90;76.84
70336;SHT31;57756;47.408;18.940;2023-04-03T00:47:24;5.92;76.57
70336;SHT31;57756;47.408;18.940;2023-04-03T00:49:51;5.88;76.82
70336;SHT31;57756;47.408;18.940;2023-04-03T00:52:19;5.87;76.78
70336;SHT31;57756;47.408;18.940;2023-04-03T00:54:47;5.87;76.43
70336;SHT31;57756;47.408;18.940;2023-04-03T00:57:14;5.90;76.66
70336;SHT31;57756;47.408;18.940;2023-04-03T00:59:46;5.87;76.58
70336;SHT31;57756;47.408;18.940;2023-04-03T01:02:13;5.90;76.55
70336;SHT31;57756;47.408;18.940;2023-04-03T01:04:42;5.91;75.98
70336;SHT31;57756;47.408;18.940;2023-04-03T01:07:15;5.87;76.70
70336;SHT31;57756;47.408;18.940;2023-04-03T01:09:42;5.85;76.30
70336;SHT31;57756;47.408;18.940;2023-04-03T01:14:45;5.90;76.51
70336;SHT31;57756;47.408;18.940;2023-04-03T01:25:46;5.78;76.30
70336;SHT31;57756;47.408;18.940;2023-04-03T01:28:25;5.81;76.24
70336;SHT31;57756;47.408;18.940;2023-04-03T01:30:55;5.75;76.64
70336;SHT31;57756;47.408;18.940;2023-04-03T01:33:23;5.67;76.24
70336;SHT31;57756;47.408;18.940;2023-04-03T01:35:48;5.73;76.80
70336;SHT31;57756;47.408;18.940;2023-04-03T01:38:14;5.74;76.15
70336;SHT31;57756;47.408;18.940;2023-04-03T01:40:40;5.70;76.67
70336;SHT31;57756;47.408;18.940;2023-04-03T01:43:05;5.67;76.24
70336;SHT31;57756;47.408;18.940;2023-04-03T01:45:31;5.64;75.85
70336;SHT31;57756;47.408;18.940;2023-04-03T01:47:56;5.63;76.16
70336;SHT31;57756;47.408;18.940;2023-04-03T01:50:22;5.61;76.26
70336;SHT31;57756;47.408;18.940;2023-04-03T01:52:47;5.61;76.61
70336;SHT31;57756;47.408;18.940;2023-04-03T01:55:13;5.60;76.23
70336;SHT31;57756;47.408;18.940;2023-04-03T01:57:38;5.54;76.45
70336;SHT31;57756;47.408;18.940;2023-04-03T02:00:04;5.53;76.46
70336;SHT31;57756;47.408;18.940;2023-04-03T02:02:30;5.53;76.90
70336;SHT31;57756;47.408;18.940;2023-04-03T02:04:55;5.53;76.52
70336;SHT31;57756;47.408;18.940;2023-04-03T02:07:21;5.51;76.52
70336;SHT31;57756;47.408;18.940;2023-04-03T02:09:46;5.47;76.35
70336;SHT31;57756;47.408;18.940;2023-04-03T02:12:12;5.46;76.67
70336;SHT31;57756;47.408;18.940;2023-04-03T02:14:37;5.42;76.68
70336;SHT31;57756;47.408;18.940;2023-04-03T02:17:02;5.43;76.88
70336;SHT31;57756;47.408;18.940;2023-04-03T02:19:30;5.42;76.87
70336;SHT31;57756;47.408;18.940;2023-04-03T02:21:56;5.40;77.22
70336;SHT31;57756;47.408;18.940;2023-04-03T02:24:22;5.37;77.55
70336;SHT31;57756;47.408;18.940;2023-04-03T02:26:47;5.43;77.16
70336;SHT31;57756;47.408;18.940;2023-04-03T02:29:13;5.39;77.38
70336;SHT31;57756;47.408;18.940;2023-04-03T02:31:38;5.39;77.39
70336;SHT31;57756;47.408;18.940;2023-04-03T02:34:04;5.42;77.16
70336;SHT31;57756;47.408;18.940;2023-04-03T02:36:29;5.32;77.23
70336;SHT31;57756;47.408;18.940;2023-04-03T02:38:55;5.33;77.46
70336;SHT31;57756;47.408;18.940;2023-04-03T02:41:20;5.33;77.93
70336;SHT31;57756;47.408;18.940;2023-04-03T02:43:46;5.29;77.45
70336;SHT31;57756;47.408;18.940;2023-04-03T02:46:11;5.27;77.59
70336;SHT31;57756;47.408;18.940;2023-04-03T02:48:40;5.20;78.19
70336;SHT31;57756;47.408;18.940;2023-04-03T02:51:05;5.27;77.88
70336;SHT31;57756;47.408;18.940;2023-04-03T02:53:31;5.20;78.45
70336;SHT31;57756;47.408;18.940;2023-04-03T02:55:56;5.16;77.95
70336;SHT31;57756;47.408;18.940;2023-04-03T02:58:22;5.09;78.26
70336;SHT31;57756;47.408;18.940;2023-04-03T03:00:47;5.11;78.16
70336;SHT31;57756;47.408;18.940;2023-04-03T03:03:12;5.12;78.20
70336;SHT31;57756;47.408;18.940;2023-04-03T03:05:39;4.99;78.92
70336;SHT31;57756;47.408;18.940;2023-04-03T03:08:04;5.04;78.59
70336;SHT31;57756;47.408;18.940;2023-04-03T03:10:30;4.89;79.18
70336;SHT31;57756;47.408;18.940;2023-04-03T03:12:56;4.92;79.44
70336;SHT31;57756;47.408;18.940;2023-04-03T03:15:21;4.96;79.69
70336;SHT31;57756;47.408;18.940;2023-04-03T03:17:47;4.85;80.04
70336;SHT31;57756;47.408;18.940;2023-04-03T03:20:12;4.84;79.47
70336;SHT31;57756;47.408;18.940;2023-04-03T03:22:40;4.75;79.90
70336;SHT31;57756;47.408;18.940;2023-04-03T03:25:06;4.72;79.66
70336;SHT31;57756;47.408;18.940;2023-04-03T03:27:32;4.68;80.28
70336;SHT31;57756;47.408;18.940;2023-04-03T03:29:57;4.61;79.88
70336;SHT31;57756;47.408;18.940;2023-04-03T03:32:23;4.67;80.25
70336;SHT31;57756;47.408;18.940;2023-04-03T03:34:48;4.67;80.18
70336;SHT31;57756;47.408;18.940;2023-04-03T03:37:14;4.62;80.39
70336;SHT31;57756;47.408;18.940;2023-04-03T03:39:39;4.58;80.82
70336;SHT31;57756;47.408;18.940;2023-04-03T03:42:05;4.56;80.85
70336;SHT31;57756;47.408;18.940;2023-04-03T03:44:30;4.56;80.80
70336;SHT31;57756;47.408;18.940;2023-04-03T03:46:56;4.56;80.78
70336;SHT31;57756;47.408;18.940;2023-04-03T03:49:22;4.54;80.68
70336;SHT31;57756;47.408;18.940;2023-04-03T03:51:47;4.50;80.73
70336;SHT31;57756;47.408;18.940;2023-04-03T03:54:13;4.44;81.03
70336;SHT31;57756;47.408;18.940;2023-04-03T03:56:39;4.47;81.04
70336;SHT31;57756;47.408;18.940;2023-04-03T03:59:04;4.53;81.12
70336;SHT31;57756;47.408;18.940;2023-04-03T04:01:30;4.48;81.46
70336;SHT31;57756;47.408;18.940;2023-04-03T04:03:55;4.50;81.06
70336;SHT31;57756;47.408;18.940;2023-04-03T04:06:21;4.46;80.76
70336;SHT31;57756;47.408;18.940;2023-04-03T04:08:47;4.41;81.23
70336;SHT31;57756;47.408;18.940;2023-04-03T04:11:12;4.40;81.73
70336;SHT31;57756;47.408;18.940;2023-04-03T04:13:38;4.40;81.35
70336;SHT31;57756;47.408;18.940;2023-04-03T04:16:03;4.43;81.40
70336;SHT31;57756;47.408;18.940;2023-04-03T04:18:29;4.41;81.24
70336;SHT31;57756;47.408;18.940;2023-04-03T04:20:55;4.41;81.35
70336;SHT31;57756;47.408;18.940;2023-04-03T04:23:20;4.41;81.43
70336;SHT31;57756;47.408;18.940;2023-04-03T04:25:47;4.41;81.53
70336;SHT31;57756;47.408;18.940;2023-04-03T04:28:14;4.39;80.96
70336;SHT31;57756;47.408;18.940;2023-04-03T04:30:39;4.39;81.46
70336;SHT31;57756;47.408;18.940;2023-04-03T04:33:05;4.41;81.52
70336;SHT31;57756;47.408;18.940;2023-04-03T04:35:30;4.41;81.41
70336;SHT31;57756;47.408;18.940;2023-04-03T04:37:56;4.36;81.39
70336;SHT31;57756;47.408;18.940;2023-04-03T04:40:21;4.33;81.31
70336;SHT31;57756;47.408;18.940;2023-04-03T04:42:47;4.32;81.62
70336;SHT31;57756;47.408;18.940;2023-04-03T04:45:12;4.28;82.00
70336;SHT31;57756;47.408;18.940;2023-04-03T04:47:38;4.30;81.53
70336;SHT31;57756;47.408;18.940;2023-04-03T04:50:04;4.29;81.64
70336;SHT31;57756;47.408;18.940;2023-04-03T04:52:29;4.36;81.87
70336;SHT31;57756;47.408;18.940;2023-04-03T04:54:55;4.33;81.40
70336;SHT31;57756;47.408;18.940;2023-04-03T04:57:20;4.36;81.66
70336;SHT31;57756;47.408;18.940;2023-04-03T04:59:46;4.33;81.70
70336;SHT31;57756;47.408;18.940;2023-04-03T05:02:11;4.34;81.56
70336;SHT31;57756;47.408;18.940;2023-04-03T05:04:36;4.33;81.74
70336;SHT31;57756;47.408;18.940;2023-04-03T05:07:02;4.29;81.69
70336;SHT31;57756;47.408;18.940;2023-04-03T05:09:27;4.30;81.73
70336;SHT31;57756;47.408;18.940;2023-04-03T05:11:53;4.33;81.65
70336;SHT31;57756;47.408;18.940;2023-04-03T05:14:19;4.37;81.38
70336;SHT31;57756;47.408;18.940;2023-04-03T05:16:44;4.43;81.28
70336;SHT31;57756;47.408;18.940;2023-04-03T05:19:10;4.48;81.09
70336;SHT31;57756;47.408;18.940;2023-04-03T05:21:36;4.51;81.13
70336;SHT31;57756;47.408;18.940;2023-04-03T05:24:01;4.57;81.21
70336;SHT31;57756;47.408;18.940;2023-04-03T05:26:29;4.61;80.96
70336;SHT31;57756;47.408;18.940;2023-04-03T05:28:55;4.88;80.40
70336;SHT31;57756;47.408;18.940;2023-04-03T05:31:21;5.12;79.00
70336;SHT31;57756;47.408;18.940;2023-04-03T05:33:48;5.06;79.49
70336;SHT31;57756;47.408;18.940;2023-04-03T05:36:13;5.05;79.49
70336;SHT31;57756;47.408;18.940;2023-04-03T05:38:39;4.95;79.73
70336;SHT31;57756;47.408;18.940;2023-04-03T05:41:05;4.91;79.66
70336;SHT31;57756;47.408;18.940;2023-04-03T05:43:31;4.98;79.79
70336;SHT31;57756;47.408;18.940;2023-04-03T05:45:58;5.13;79.16
70336;SHT31;57756;47.408;18.940;2023-04-03T05:48:23;5.16;79.22
70336;SHT31;57756;47.408;18.940;2023-04-03T05:50:49;5.18;78.88
70336;SHT31;57756;47.408;18.940;2023-04-03T05:53:20;5.20;78.88
70336;SHT31;57756;47.408;18.940;2023-04-03T05:55:46;5.08;79.20
70336;SHT31;57756;47.408;18.940;2023-04-03T05:58:12;5.05;79.56
70336;SHT31;57756;47.408;18.940;2023-04-03T06:00:37;5.02;79.57
70336;SHT31;57756;47.408;18.940;2023-04-03T06:03:03;5.06;79.44
70336;SHT31;57756;47.408;18.940;2023-04-03T06:05:28;5.15;79.94
70336;SHT31;57756;47.408;18.940;2023-04-03T06:07:54;5.36;78.85
70336;SHT31;57756;47.408;18.940;2023-04-03T06:10:20;5.36;78.58
70336;SHT31;57756;47.408;18.940;2023-04-03T06:12:45;5.40;78.55
70336;SHT31;57756;47.408;18.940;2023-04-03T06:15:11;5.61;78.05
70336;SHT31;57756;47.408;18.940;2023-04-03T06:17:37;6.02;76.93
70336;SHT31;57756;47.408;18.940;2023-04-03T06:20:03;6.57;75.80
70336;SHT31;57756;47.408;18.940;2023-04-03T06:22:29;6.80;74.74
70336;SHT31;57756;47.408;18.940;2023-04-03T06:24:56;7.25;73.98
70336;SHT31;57756;47.408;18.940;2023-04-03T06:27:22;7.39;72.80
70336;SHT31;57756;47.408;18.940;2023-04-03T06:29:48;7.35;73.05
70336;SHT31;57756;47.408;18.940;2023-04-03T06:32:15;7.20;73.57
70336;SHT31;57756;47.408;18.940;2023-04-03T06:34:40;7.20;74.02
70336;SHT31;57756;47.408;18.940;2023-04-03T06:37:13;7.59;72.69
70336;SHT31;57756;47.408;18.940;2023-04-03T06:39:39;8.11;71.16
70336;SHT31;57756;47.408;18.940;2023-04-03T06:42:05;8.48;70.08
70336;SHT31;57756;47.408;18.940;2023-04-03T06:44:31;8.96;69.19
70336;SHT31;57756;47.408;18.940;2023-04-03T06:46:59;8.49;68.31
70336;SHT31;57756;47.408;18.940;2023-04-03T06:49:24;8.25;69.86
70336;SHT31;57756;47.408;18.940;2023-04-03T06:51:50;7.98;70.41
70336;SHT31;57756;47.408;18.940;2023-04-03T06:54:17;7.78;71.30
70336;SHT31;57756;47.408;18.940;2023-04-03T06:56:43;7.74;71.38
70336;SHT31;57756;47.408;18.940;2023-04-03T06:59:09;7.84;71.64
70336;SHT31;57756;47.408;18.940;2023-04-03T07:01:35;7.83;71.37
70336;SHT31;57756;47.408;18.940;2023-04-03T07:04:00;7.92;71.19
70336;SHT31;57756;47.408;18.940;2023-04-03T07:06:26;7.98;71.67
70336;SHT31;57756;47.408;18.940;2023-04-03T07:08:52;8.06;70.62
70336;SHT31;57756;47.408;18.940;2023-04-03T07:11:17;8.16;70.67
70336;SHT31;57756;47.408;18.940;2023-04-03T07:13:43;8.25;69.37
70336;SHT31;57756;47.408;18.940;2023-04-03T07:16:09;8.46;70.34
70336;SHT31;57756;47.408;18.940;2023-04-03T07:18:35;8.61;69.43
70336;SHT31;57756;47.408;18.940;2023-04-03T07:21:01;8.59;69.34
70336;SHT31;57756;47.408;18.940;2023-04-03T07:23:27;8.74;68.65
70336;SHT31;57756;47.408;18.940;2023-04-03T07:25:53;8.88;68.90
70336;SHT31;57756;47.408;18.940;2023-04-03T07:28:19;9.01;67.82
70336;SHT31;57756;47.408;18.940;2023-04-03T07:30:47;9.05;68.40
70336;SHT31;57756;47.408;18.940;2023-04-03T07:33:14;9.10;68.90
70336;SHT31;57756;47.408;18.940;2023-04-03T07:35:41;9.10;68.41
70336;SHT31;57756;47.408;18.940;2023-04-03T07:38:06;9.11;67.61
70336;SHT31;57756;47.408;18.940;2023-04-03T07:40:32;9.24;67.86
70336;SHT31;57756;47.408;18.940;2023-04-03T07:42:58;9.38;67.59
70336;SHT31;57756;47.408;18.940;2023-04-03T07:45:24;9.50;65.87
70336;SHT31;57756;47.408;18.940;2023-04-03T07:47:50;9.62;65.85
70336;SHT31;57756;47.408;18.940;2023-04-03T07:50:16;9.74;65.90
70336;SHT31;57756;47.408;18.940;2023-04-03T07:52:42;9.77;65.05
70336;SHT31;57756;47.408;18.940;2023-04-03T07:55:08;9.80;64.67
70336;SHT31;57756;47.408;18.940;2023-04-03T07:57:33;9.83;63.64
70336;SHT31;57756;47.408;18.940;2023-04-03T07:59:59;9.87;63.77
70336;SHT31;57756;47.408;18.940;2023-04-03T08:02:24;9.94;64.43
70336;SHT31;57756;47.408;18.940;2023-04-03T08:04:50;9.98;64.59
70336;SHT31;57756;47.408;18.940;2023-04-03T08:07:16;10.03;63.31
70336;SHT31;57756;47.408;18.940;2023-04-03T08:09:41;9.93;63.09
70336;SHT31;57756;47.408;18.940;2023-04-03T08:12:07;9.90;64.82
70336;SHT31;57756;47.408;18.940;2023-04-03T08:14:32;9.90;63.61
70336;SHT31;57756;47.408;18.940;2023-04-03T08:17:00;9.74;63.76
70336;SHT31;57756;47.408;18.940;2023-04-03T08:19:26;9.77;64.77
70336;SHT31;57756;47.408;18.940;2023-04-03T08:21:54;9.80;64.61
70336;SHT31;57756;47.408;18.940;2023-04-03T08:24:20;9.95;63.54
70336;SHT31;57756;47.408;18.940;2023-04-03T08:26:45;10.07;64.15
70336;SHT31;57756;47.408;18.940;2023-04-03T08:29:11;10.31;63.07
70336;SHT31;57756;47.408;18.940;2023-04-03T08:31:36;10.44;62.89
70336;SHT31;57756;47.408;18.940;2023-04-03T08:34:02;10.55;61.20
70336;SHT31;57756;47.408;18.940;2023-04-03T08:36:28;10.69;62.51
70336;SHT31;57756;47.408;18.940;2023-04-03T08:38:56;10.86;61.47
70336;SHT31;57756;47.408;18.940;2023-04-03T08:44:13;10.80;60.04
70336;SHT31;57756;47.408;18.940;2023-04-03T08:47:10;10.32;59.14
70336;SHT31;57756;47.408;18.940;2023-04-03T08:49:46;10.10;59.46
70336;SHT31;57756;47.408;18.940;2023-04-03T08:52:32;10.11;60.51
70336;SHT31;57756;47.408;18.940;2023-04-03T08:55:28;10.18;59.95
70336;SHT31;57756;47.408;18.940;2023-04-03T08:58:04;10.21;61.37
70336;SHT31;57756;47.408;18.940;2023-04-03T09:00:45;10.32;59.51
70336;SHT31;57756;47.408;18.940;2023-04-03T09:03:13;10.46;59.46
70336;SHT31;57756;47.408;18.940;2023-04-03T09:05:43;10.60;61.34
70336;SHT31;57756;47.408;18.940;2023-04-03T09:08:31;10.28;58.88
70336;SHT31;57756;47.408;18.940;2023-04-03T09:16:55;10.48;58.56
70336;SHT31;57756;47.408;18.940;2023-04-03T09:22:17;10.79;59.09
70336;SHT31;57756;47.408;18.940;2023-04-03T09:24:47;10.66;58.89
70336;SHT31;57756;47.408;18.940;2023-04-03T09:27:15;10.84;58.99
70336;SHT31;57756;47.408;18.940;2023-04-03T09:29:44;11.07;58.79
70336;SHT31;57756;47.408;18.940;2023-04-03T09:34:48;11.10;58.81
70336;SHT31;57756;47.408;18.940;2023-04-03T09:37:43;11.14;57.72
70336;SHT31;57756;47.408;18.940;2023-04-03T09:40:32;11.16;57.03
70336;SHT31;57756;47.408;18.940;2023-04-03T09:43:02;11.41;58.58
70336;SHT31;57756;47.408;18.940;2023-04-03T09:45:34;11.20;56.65
70336;SHT31;57756;47.408;18.940;2023-04-03T09:48:12;11.34;58.48
70336;SHT31;57756;47.408;18.940;2023-04-03T09:56:00;12.14;57.42
70336;SHT31;57756;47.408;18.940;2023-04-03T09:58:32;12.26;56.61
70336;SHT31;57756;47.408;18.940;2023-04-03T10:01:00;12.67;53.99
70336;SHT31;57756;47.408;18.940;2023-04-03T10:03:34;12.74;52.97
70336;SHT31;57756;47.408;18.940;2023-04-03T10:06:02;12.97;54.69
70336;SHT31;57756;47.408;18.940;2023-04-03T10:08:34;12.40;53.46
70336;SHT31;57756;47.408;18.940;2023-04-03T10:11:16;12.13;54.23
70336;SHT31;57756;47.408;18.940;2023-04-03T10:13:56;12.41;54.86
70336;SHT31;57756;47.408;18.940;2023-04-03T10:16:35;12.61;53.71
70336;SHT31;57756;47.408;18.940;2023-04-03T10:21:47;12.38;54.04
70336;SHT31;57756;47.408;18.940;2023-04-03T10:32:45;12.02;57.70
70336;SHT31;57756;47.408;18.940;2023-04-03T10:38:10;11.81;55.74
70336;SHT31;57756;47.408;18.940;2023-04-03T10:40:50;11.75;54.97
70336;SHT31;57756;47.408;18.940;2023-04-03T10:46:09;11.62;58.10
70336;SHT31;57756;47.408;18.940;2023-04-03T10:51:48;11.58;54.76
70336;SHT31;57756;47.408;18.940;2023-04-03T10:54:24;11.46;54.41
70336;SHT31;57756;47.408;18.940;2023-04-03T10:57:03;11.23;54.87
70336;SHT31;57756;47.408;18.940;2023-04-03T10:59:38;11.39;53.73
70336;SHT31;57756;47.408;18.940;2023-04-03T11:04:53;11.32;56.44
70336;SHT31;57756;47.408;18.940;2023-04-03T11:07:28;11.45;54.74
70336;SHT31;57756;47.408;18.940;2023-04-03T11:10:09;11.39;56.04
70336;SHT31;57756;47.408;18.940;2023-04-03T11:12:52;11.34;55.77
70336;SHT31;57756;47.408;18.940;2023-04-03T11:15:20;11.25;58.08
70336;SHT31;57756;47.408;18.940;2023-04-03T11:17:55;11.25;57.12
70336;SHT31;57756;47.408;18.940;2023-04-03T11:20:31;11.11;57.36
70336;SHT31;57756;47.408;18.940;2023-04-03T11:23:12;11.10;58.42
70336;SHT31;57756;47.408;18.940;2023-04-03T11:25:40;11.17;57.97
70336;SHT31;57756;47.408;18.940;2023-04-03T11:28:12;11.13;56.64
70336;SHT31;57756;47.408;18.940;2023-04-03T11:30:53;11.04;57.57
70336;SHT31;57756;47.408;18.940;2023-04-03T11:36:32;10.87;56.55
70336;SHT31;57756;47.408;18.940;2023-04-03T11:39:15;10.90;56.29
70336;SHT31;57756;47.408;18.940;2023-04-03T11:41:42;11.01;56.62
70336;SHT31;57756;47.408;18.940;2023-04-03T11:44:40;10.81;56.01
70336;SHT31;57756;47.408;18.940;2023-04-03T11:47:08;10.89;56.23
70336;SHT31;57756;47.408;18.940;2023-04-03T11:50:00;10.79;57.61
70336;SHT31;57756;47.408;18.940;2023-04-03T12:27:00;10.92;56.08
70336;SHT31;57756;47.408;18.940;2023-04-03T12:45:58;10.93;54.56
70336;SHT31;57756;47.408;18.940;2023-04-03T12:48:28;11.04;55.62
70336;SHT31;57756;47.408;18.940;2023-04-03T12:50:55;11.01;56.89
70336;SHT31;57756;47.408;18.940;2023-04-03T12:53:26;11.00;57.00
70336;SHT31;57756;47.408;18.940;2023-04-03T12:58:47;11.01;57.71
70336;SHT31;57756;47.408;18.940;2023-04-03T13:01:16;11.04;57.92
70336;SHT31;57756;47.408;18.940;2023-04-03T13:03:54;11.10;58.32
70336;SHT31;57756;47.408;18.940;2023-04-03T13:06:27;11.17;56.26
70336;SHT31;57756;47.408;18.940;2023-04-03T13:08:58;11.27;57.16
70336;SHT31;57756;47.408;18.940;2023-04-03T13:11:27;11.34;56.02
70336;SHT31;57756;47.408;18.940;2023-04-03T13:14:14;11.42;55.66
70336;SHT31;57756;47.408;18.940;2023-04-03T13:16:40;11.59;56.38
70336;SHT31;57756;47.408;18.940;2023-04-03T13:19:17;11.58;55.67
70336;SHT31;57756;47.408;18.940;2023-04-03T13:21:44;11.63;55.22
70336;SHT31;57756;47.408;18.940;2023-04-03T13:24:11;11.68;55.31
70336;SHT31;57756;47.408;18.940;2023-04-03T13:26:37;11.66;56.06
70336;SHT31;57756;47.408;18.940;2023-04-03T13:29:05;11.71;54.70
70336;SHT31;57756;47.408;18.940;2023-04-03T13:31:35;11.78;55.19
70336;SHT31;57756;47.408;18.940;2023-04-03T13:34:12;11.76;56.19
70336;SHT31;57756;47.408;18.940;2023-04-03T13:36:41;11.65;54.91
70336;SHT31;57756;47.408;18.940;2023-04-03T13:41:44;11.52;54.60
70336;SHT31;57756;47.408;18.940;2023-04-03T13:46:53;11.44;55.79
70336;SHT31;57756;47.408;18.940;2023-04-03T13:51:52;11.54;56.10
70336;SHT31;57756;47.408;18.940;2023-04-03T13:54:24;11.58;54.23
70336;SHT31;57756;47.408;18.940;2023-04-03T13:56:55;11.41;55.32
70336;SHT31;57756;47.408;18.940;2023-04-03T13:59:32;11.45;55.48
70336;SHT31;57756;47.408;18.940;2023-04-03T14:04:53;11.38;54.33
70336;SHT31;57756;47.408;18.940;2023-04-03T14:07:22;11.41;55.68
70336;SHT31;57756;47.408;18.940;2023-04-03T14:09:48;11.48;56.26
70336;SHT31;57756;47.408;18.940;2023-04-03T14:12:18;11.51;55.00
70336;SHT31;57756;47.408;18.940;2023-04-03T14:14:45;11.57;56.14
70336;SHT31;57756;47.408;18.940;2023-04-03T14:17:19;11.46;56.53
70336;SHT31;57756;47.408;18.940;2023-04-03T14:19:46;11.52;53.61
70336;SHT31;57756;47.408;18.940;2023-04-03T14:22:26;11.44;55.11
70336;SHT31;57756;47.408;18.940;2023-04-03T14:24:53;11.30;54.48
70336;SHT31;57756;47.408;18.940;2023-04-03T14:27:25;11.18;55.60
70336;SHT31;57756;47.408;18.940;2023-04-03T14:29:52;11.14;56.62
70336;SHT31;57756;47.408;18.940;2023-04-03T14:32:22;11.01;55.85
70336;SHT31;57756;47.408;18.940;2023-04-03T14:34:49;11.00;54.79
70336;SHT31;57756;47.408;18.940;2023-04-03T14:37:19;10.92;56.24
70336;SHT31;57756;47.408;18.940;2023-04-03T14:39:46;10.72;56.21
70336;SHT31;57756;47.408;18.940;2023-04-03T14:42:17;10.62;57.66
70336;SHT31;57756;47.408;18.940;2023-04-03T14:44:44;10.35;55.12
70336;SHT31;57756;47.408;18.940;2023-04-03T14:47:14;10.41;56.74
70336;SHT31;57756;47.408;18.940;2023-04-03T14:49:40;10.25;56.04
70336;SHT31;57756;47.408;18.940;2023-04-03T14:52:06;10.14;56.45
70336;SHT31;57756;47.408;18.940;2023-04-03T14:54:31;9.98;57.29
70336;SHT31;57756;47.408;18.940;2023-04-03T14:56:59;9.91;57.08
70336;SHT31;57756;47.408;18.940;2023-04-03T14:59:26;9.84;56.89
70336;SHT31;57756;47.408;18.940;2023-04-03T15:01:52;9.93;57.34
70336;SHT31;57756;47.408;18.940;2023-04-03T15:04:20;9.82;56.57
70336;SHT31;57756;47.408;18.940;2023-04-03T15:06:46;9.80;55.67
70336;SHT31;57756;47.408;18.940;2023-04-03T15:09:20;9.79;57.43
70336;SHT31;57756;47.408;18.940;2023-04-03T15:11:47;9.79;56.38
70336;SHT31;57756;47.408;18.940;2023-04-03T15:14:13;9.62;56.11
70336;SHT31;57756;47.408;18.940;2023-04-03T15:16:39;9.59;57.19
70336;SHT31;57756;47.408;18.940;2023-04-03T15:19:04;9.56;56.37
70336;SHT31;57756;47.408;18.940;2023-04-03T15:21:30;9.45;56.47
70336;SHT31;57756;47.408;18.940;2023-04-03T15:23:56;9.36;56.34
70336;SHT31;57756;47.408;18.940;2023-04-03T15:26:21;9.31;57.11
70336;SHT31;57756;47.408;18.940;2023-04-03T15:28:47;9.25;57.46
70336;SHT31;57756;47.408;18.940;2023-04-03T15:31:12;9.19;56.64
70336;SHT31;57756;47.408;18.940;2023-04-03T15:33:38;9.29;57.41
70336;SHT31;57756;47.408;18.940;2023-04-03T15:36:04;9.29;56.97
70336;SHT31;57756;47.408;18.940;2023-04-03T15:38:30;9.25;55.98
70336;SHT31;57756;47.408;18.940;2023-04-03T15:40:56;9.29;57.78
70336;SHT31;57756;47.408;18.940;2023-04-03T15:43:22;9.36;57.96
70336;SHT31;57756;47.408;18.940;2023-04-03T15:45:48;9.25;56.14
70336;SHT31;57756;47.408;18.940;2023-04-03T15:48:14;9.03;55.96
70336;SHT31;57756;47.408;18.940;2023-04-03T15:50:40;8.96;55.83
70336;SHT31;57756;47.408;18.940;2023-04-03T15:53:06;8.90;56.42
70336;SHT31;57756;47.408;18.940;2023-04-03T15:55:34;8.83;56.94
70336;SHT31;57756;47.408;18.940;2023-04-03T15:58:01;8.83;57.24
70336;SHT31;57756;47.408;18.940;2023-04-03T16:00:28;8.71;56.20
70336;SHT31;57756;47.408;18.940;2023-04-03T16:03:05;8.63;57.09
70336;SHT31;57756;47.408;18.940;2023-04-03T16:05:31;8.56;56.47
70336;SHT31;57756;47.408;18.940;2023-04-03T16:07:58;8.56;57.65
70336;SHT31;57756;47.408;18.940;2023-04-03T16:10:24;8.48;56.09
70336;SHT31;57756;47.408;18.940;2023-04-03T16:12:50;8.36;57.41
70336;SHT31;57756;47.408;18.940;2023-04-03T16:15:15;8.33;56.32
70336;SHT31;57756;47.408;18.940;2023-04-03T16:17:41;8.28;56.22
70336;SHT31;57756;47.408;18.940;2023-04-03T16:20:07;8.22;56.88
70336;SHT31;57756;47.408;18.940;2023-04-03T16:22:33;8.22;56.65
70336;SHT31;57756;47.408;18.940;2023-04-03T16:24:59;8.25;56.51
70336;SHT31;57756;47.408;18.940;2023-04-03T16:27:24;8.18;56.85
70336;SHT31;57756;47.408;18.940;2023-04-03T16:29:54;8.16;57.10
70336;SHT31;57756;47.408;18.940;2023-04-03T16:32:20;8.12;57.02
70336;SHT31;57756;47.408;18.940;2023-04-03T16:34:45;8.12;56.24
70336;SHT31;57756;47.408;18.940;2023-04-03T16:37:11;7.99;56.87
70336;SHT31;57756;47.408;18.940;2023-04-03T16:39:36;7.97;57.02
70336;SHT31;57756;47.408;18.940;2023-04-03T16:42:02;7.97;56.91
70336;SHT31;57756;47.408;18.940;2023-04-03T16:44:27;7.94;56.99
70336;SHT31;57756;47.408;18.940;2023-04-03T16:46:53;7.94;56.44
70336;SHT31;57756;47.408;18.940;2023-04-03T16:49:19;7.91;57.62
70336;SHT31;57756;47.408;18.940;2023-04-03T16:51:44;7.88;57.50
70336;SHT31;57756;47.408;18.940;2023-04-03T16:54:10;7.90;56.99
70336;SHT31;57756;47.408;18.940;2023-04-03T16:56:37;7.92;56.97
70336;SHT31;57756;47.408;18.940;2023-04-03T16:59:03;7.87;57.74
70336;SHT31;57756;47.408;18.940;2023-04-03T17:01:28;7.78;57.47
70336;SHT31;57756;47.408;18.940;2023-04-03T17:03:54;7.81;57.21
70336;SHT31;57756;47.408;18.940;2023-04-03T17:06:20;7.83;57.28
70336;SHT31;57756;47.408;18.940;2023-04-03T17:08:48;7.77;58.03
70336;SHT31;57756;47.408;18.940;2023-04-03T17:11:14;7.77;58.44
70336;SHT31;57756;47.408;18.940;2023-04-03T17:13:40;7.75;58.76
70336;SHT31;57756;47.408;18.940;2023-04-03T17:16:09;7.78;57.92
70336;SHT31;57756;47.408;18.940;2023-04-03T17:18:36;7.71;58.59
70336;SHT31;57756;47.408;18.940;2023-04-03T17:21:03;7.77;59.40
70336;SHT31;57756;47.408;18.940;2023-04-03T17:23:29;7.81;58.50
70336;SHT31;57756;47.408;18.940;2023-04-03T17:25:55;7.84;57.68
70336;SHT31;57756;47.408;18.940;2023-04-03T17:28:22;7.88;56.79
70336;SHT31;57756;47.408;18.940;2023-04-03T17:30:56;7.87;56.72
70336;SHT31;57756;47.408;18.940;2023-04-03T17:33:24;7.81;57.16
70336;SHT31;57756;47.408;18.940;2023-04-03T17:35:50;7.81;56.33